Terminal Aerodrome Forecast
Issued by NWS Portland, ME

Home | Current Version | Previous Version | Text Only | Print | Product List | Glossary On
Versions: 1 2 3 4 5 6 7 8 9 10 11 12 13 14 15 16 17 18
371
FTUS41 KGYX 290520
TAFPWM
TAF
KPWM 290520Z 2906/3006 VRB03KT P6SM BKN250
     FM291500 24008KT P6SM BKN050
     FM291800 23013KT P6SM BKN050 PROB30 2918/2924 4SM -SHRA OVC035
     FM300200 18006KT 6SM SHRA OVC035=

USA.gov is the U.S. government's official web portal to all federal, state and local government web resources and services.